Berryville, AR (72616)

4:27 PM CDT on July 01, 2015 (GMT -0500)
KAREUREK9 | | Change Station
CLOSE
Current Station
Personal Weather Station
Location: Eureka Springs, AR
Elevation: 1200 ft
Nearby Weather Stations

Elev 1200 ft 36.36 °N, 93.68 °W | Updated 6 minutes ago

Partly Cloudy
Partly Cloudy
87.3 °F
Feels Like 96 °F
N
3.0
Wind Variable Wind from East
Gusts 6.0 mph

Today
High -- | Low -- °F
--% Chance of Precip.
Yesterday
High -- | Low -- °F
Precip. -- in
6:00 AM 8:36 PM
Full, 100% visible
Pressure 29.94 in
Visibility 10.0 miles
Clouds Mostly Cloudy 15000 ft
Heat Index 96 °F
Dew Point 74 °F
Humidity 65%
Rainfall 0.00 in
Snow Depth Not available.
UV 5 out of 12
Pollen .50 out of 12
Air Quality Not available.
Flu Activity Not available.
METAR KBBG 012045Z 14012KT 10SM BKN150 28/23 A2994

More Conditions Fewer Conditions

Pressure 29.94 in
Visibility 10.0 miles
Clouds Mostly Cloudy 15000 ft
Heat Index 96 °F
Dew Point 74 °F
Humidity 65%
Rainfall 0.00 in
Snow Depth Not available.
UV 5 out of 12
Pollen .50 out of 12
Air Quality Not available.
Flu Activity Not available.
METAR KBBG 012045Z 14012KT 10SM BKN150 28/23 A2994

More Conditions Fewer Conditions

Nowcast | as of 4:23 PM CDT on July 1, 2015

At 4:23 PM...Doppler radars indicate scattered showers across southern Kansas and southern Missouri...with some of this activity crossing into far northern sections of Oklahoma and Arkansas. These showers were moving southeast at around 30 mph. Through 6:00 PM...occasional light showers will be possible for far northern Oklahoma and the northwest corner of Arkansas... mainly along and north of a Hominy to Huntsville line. Rainfall amounts from a trace to a couple hundredths of an inch will be common with this activity as it continues to move southeast across the area. Additional...more widespread and stronger shower and thunderstorm activity will be possible across the far northeast part of the area later this evening.

×

10-Day Weather Forecast

×

Almanac

Astronomy

Jul. 01, 2015 Rise Set
Actual Time
Civil Twilight
Nautical Twilight
Astronomical Twilight
Moon
Length of Visible Light
Length of Day
Tomorrow will be .
, % of the Moon is Illuminated

Today's Extremes

State Highs State Lows

Community

WunderPhotos

Upload Photos

1,834,287 photos uploaded!

WunderBlogs® & News

Nearby

Air Quality

  Air Quality AQ Index Pollutant
Not available.

Snow Depth

Station Depth Elevation

Earthquake Activity

City Distance Mag. Time & Date
Minimum magnitude displayed is 2.5.

Coastal Water Temperatures

Place Temperature

Stations

Nearby Weather Stations

Station Location Temp. Windchill Dew Point Humidity Wind Precip. Elev Updated Type